Time;durP1;ratioP1;P1;durP2;ratioP2;P2;SDS_P1;SDS_P2;PMS_P1;PMS_P2;Temp;Humidity;BMP_temperature;BMP_pressure;BME280_temperature;BME280_humidity;BME280_pressure;Samples;Min_cycle;Max_cycle;Signal;HPM_P1;HPM_P2
2023/04/11 00:01:48;;;;;;;;;;;10.60;95.70;;;;;;5103470;28;19954;-67
2023/04/11 00:04:15;;;;;;;;;;;10.60;95.80;;;;;;5107574;28;19912;-67
2023/04/11 00:06:41;;;;;;;;;;;10.50;95.60;;;;;;5107986;28;20384;-67
2023/04/11 00:09:07;;;;;;;;;;;10.50;95.60;;;;;;5108556;28;19912;-67
2023/04/11 00:11:32;;;;;;;;;;;10.50;95.60;;;;;;5106858;28;19911;-67
2023/04/11 00:13:58;;;;;;;;;;;10.50;95.50;;;;;;5105908;28;19923;-67
2023/04/11 00:16:25;;;;;;;;;;;10.50;95.60;;;;;;5107735;28;19916;-67
2023/04/11 00:18:51;;;;;;;;;;;10.50;95.60;;;;;;5107312;28;19935;-67
2023/04/11 00:21:16;;;;;;;;;;;10.50;95.60;;;;;;5107884;28;20279;-67
2023/04/11 00:23:42;;;;;;;;;;;10.50;95.60;;;;;;5107326;28;19939;-67
2023/04/11 00:26:07;;;;;;;;;;;10.50;95.60;;;;;;5107757;28;20009;-67
2023/04/11 00:28:33;;;;;;;;;;;10.40;95.40;;;;;;5107777;28;19915;-67
2023/04/11 00:30:59;;;;;;;;;;;10.40;95.50;;;;;;5107513;28;19912;-67
2023/04/11 00:33:24;;;;;;;;;;;10.40;95.40;;;;;;5107176;28;20267;-67
2023/04/11 00:35:50;;;;;;;;;;;10.40;95.40;;;;;;5107513;28;19916;-67
2023/04/11 00:38:15;;;;;;;;;;;10.40;95.40;;;;;;5108595;28;19915;-67
2023/04/11 00:40:42;;;;;;;;;;;10.40;95.60;;;;;;5111016;28;20011;-67
2023/04/11 00:43:07;;;;;;;;;;;10.40;95.50;;;;;;5111184;28;19920;-67
2023/04/11 00:45:33;;;;;;;;;;;10.40;95.50;;;;;;5110238;28;20410;-68
2023/04/11 00:47:59;;;;;;;;;;;10.40;95.50;;;;;;5111180;28;20100;-67
2023/04/11 00:50:25;;;;;;;;;;;10.40;95.50;;;;;;5109781;28;19962;-67
2023/04/11 00:52:51;;;;;;;;;;;10.40;95.50;;;;;;5110666;28;20377;-67
2023/04/11 00:55:16;;;;;;;;;;;10.40;95.50;;;;;;5104703;28;20266;-67
2023/04/11 00:57:42;;;;;;;;;;;10.30;95.50;;;;;;5110378;28;19915;-67
2023/04/11 01:00:09;;;;;;;;;;;10.30;95.50;;;;;;5111107;28;19938;-68
2023/04/11 01:02:36;;;;;;;;;;;10.40;95.50;;;;;;5110535;28;19912;-67
2023/04/11 01:05:03;;;;;;;;;;;10.40;95.50;;;;;;5110851;28;19912;-67
2023/04/11 01:07:30;;;;;;;;;;;10.30;95.60;;;;;;5107578;28;19977;-67
2023/04/11 01:09:56;;;;;;;;;;;10.30;95.60;;;;;;5110722;28;19915;-67
2023/04/11 01:12:22;;;;;;;;;;;10.30;95.50;;;;;;5109098;28;19919;-68
2023/04/11 01:14:47;;;;;;;;;;;10.30;95.50;;;;;;5110494;28;19911;-67
2023/04/11 01:17:14;;;;;;;;;;;10.30;95.50;;;;;;5110325;28;19950;-67
2023/04/11 01:19:40;;;;;;;;;;;10.30;95.50;;;;;;5110527;28;19919;-67
2023/04/11 01:22:06;;;;;;;;;;;10.30;95.50;;;;;;5109957;28;19912;-67
2023/04/11 01:24:32;;;;;;;;;;;10.20;95.50;;;;;;5110902;28;19918;-67
2023/04/11 01:26:57;;;;;;;;;;;10.20;95.50;;;;;;5110564;28;20007;-68
2023/04/11 01:29:23;;;;;;;;;;;10.30;95.50;;;;;;5110875;28;20002;-67
2023/04/11 01:31:50;;;;;;;;;;;10.20;95.60;;;;;;5106276;28;19912;-67
2023/04/11 01:34:16;;;;;;;;;;;10.20;95.70;;;;;;5110853;28;19916;-67
2023/04/11 01:36:42;;;;;;;;;;;10.20;95.80;;;;;;5110458;28;19937;-67
2023/04/11 01:39:08;;;;;;;;;;;10.20;95.80;;;;;;5111335;28;19912;-67
2023/04/11 01:41:34;;;;;;;;;;;10.20;95.80;;;;;;5109788;28;19919;-69
2023/04/11 01:44:00;;;;;;;;;;;10.20;95.70;;;;;;5110126;28;19919;-67
2023/04/11 01:46:25;;;;;;;;;;;10.20;95.60;;;;;;5110355;28;19964;-67
2023/04/11 01:48:53;;;;;;;;;;;10.20;95.60;;;;;;5108141;28;19911;-67
2023/04/11 01:51:18;;;;;;;;;;;10.20;95.70;;;;;;5109800;28;19912;-67
2023/04/11 01:53:46;;;;;;;;;;;10.20;95.80;;;;;;5109680;28;19923;-67
2023/04/11 01:56:12;;;;;;;;;;;10.20;95.60;;;;;;5109881;27;19912;-67
2023/04/11 01:58:37;;;;;;;;;;;10.20;95.70;;;;;;5109810;28;19912;-67
2023/04/11 02:01:03;;;;;;;;;;;10.10;95.60;;;;;;5110400;28;19919;-67
2023/04/11 02:03:28;;;;;;;;;;;10.10;95.70;;;;;;5109679;28;19919;-67
2023/04/11 02:05:54;;;;;;;;;;;10.10;95.60;;;;;;5110092;28;20519;-67
2023/04/11 02:08:20;;;;;;;;;;;10.10;95.70;;;;;;5109540;28;19916;-67
2023/04/11 02:10:45;;;;;;;;;;;10.10;95.70;;;;;;5109821;28;19914;-67
2023/04/11 02:13:11;;;;;;;;;;;10.10;95.70;;;;;;5109617;28;20744;-67
2023/04/11 02:15:36;;;;;;;;;;;10.10;95.60;;;;;;5108787;28;19911;-67
2023/04/11 02:18:02;;;;;;;;;;;10.10;95.80;;;;;;5109607;28;19957;-67
2023/04/11 02:20:27;;;;;;;;;;;10.10;95.80;;;;;;5108251;28;19915;-67
2023/04/11 02:22:53;;;;;;;;;;;10.10;95.70;;;;;;5109216;28;20006;-67
2023/04/11 02:25:18;;;;;;;;;;;10.10;95.70;;;;;;5109646;28;19912;-67
2023/04/11 02:27:44;;;;;;;;;;;10.10;95.90;;;;;;5109486;28;19912;-67
2023/04/11 02:30:10;;;;;;;;;;;10.00;95.70;;;;;;5109734;28;20280;-67
2023/04/11 02:32:39;;;;;;;;;;;10.10;95.70;;;;;;5108653;28;20000;-67
2023/04/11 02:35:06;;;;;;;;;;;10.00;95.70;;;;;;5109245;28;20360;-67
2023/04/11 02:37:32;;;;;;;;;;;10.00;95.60;;;;;;5108979;28;19915;-67
2023/04/11 02:39:57;;;;;;;;;;;10.00;95.70;;;;;;5109226;28;19976;-67
2023/04/11 02:42:23;;;;;;;;;;;10.00;95.70;;;;;;5107520;28;19912;-67
2023/04/11 02:44:48;;;;;;;;;;;10.00;95.80;;;;;;5109227;28;20338;-67
2023/04/11 02:47:14;;;;;;;;;;;10.00;95.80;;;;;;5109019;28;19912;-67
2023/04/11 02:49:42;;;;;;;;;;;9.90;95.80;;;;;;5107904;28;19923;-67
2023/04/11 02:52:08;;;;;;;;;;;9.90;95.70;;;;;;5107191;28;19912;-67
2023/04/11 02:54:34;;;;;;;;;;;9.90;95.90;;;;;;5108581;28;19950;-67
2023/04/11 02:57:00;;;;;;;;;;;9.90;95.90;;;;;;5107891;28;19912;-67
2023/04/11 02:59:26;;;;;;;;;;;9.90;95.80;;;;;;5108695;28;20036;-67
2023/04/11 03:01:58;;;;;;;;;;;9.90;95.90;;;;;;5104502;28;20022;-67
2023/04/11 03:04:23;;;;;;;;;;;9.90;95.90;;;;;;5103179;28;19912;-67
2023/04/11 03:06:49;;;;;;;;;;;9.90;96.00;;;;;;5108349;28;19911;-67
2023/04/11 03:09:15;;;;;;;;;;;9.90;96.00;;;;;;5108808;28;19995;-67
2023/04/11 03:11:40;;;;;;;;;;;9.90;95.90;;;;;;5108643;28;19915;-67
2023/04/11 03:14:06;;;;;;;;;;;9.80;95.90;;;;;;5107106;28;20256;-67
2023/04/11 03:16:31;;;;;;;;;;;9.90;95.80;;;;;;5109218;28;19919;-67
2023/04/11 03:18:57;;;;;;;;;;;9.80;95.80;;;;;;5108675;28;19923;-67
2023/04/11 03:21:23;;;;;;;;;;;9.80;95.90;;;;;;5109042;28;19916;-67
2023/04/11 03:23:48;;;;;;;;;;;9.80;95.70;;;;;;5107006;28;19961;-67
2023/04/11 03:26:14;;;;;;;;;;;9.80;95.70;;;;;;5108462;28;19978;-67
2023/04/11 03:28:40;;;;;;;;;;;9.80;95.80;;;;;;5108338;28;20296;-67
2023/04/11 03:31:06;;;;;;;;;;;9.80;95.70;;;;;;5102550;28;20407;-67
2023/04/11 03:33:31;;;;;;;;;;;9.80;95.60;;;;;;5087116;28;19924;-67
2023/04/11 03:35:57;;;;;;;;;;;9.80;95.70;;;;;;5102244;28;19919;-67
2023/04/11 03:38:22;;;;;;;;;;;9.80;95.70;;;;;;5107630;28;19954;-67
2023/04/11 03:40:48;;;;;;;;;;;9.70;95.80;;;;;;5107764;28;20431;-67
2023/04/11 03:43:14;;;;;;;;;;;9.70;95.70;;;;;;5107011;28;19946;-67
2023/04/11 03:45:39;;;;;;;;;;;9.70;95.80;;;;;;5107830;28;19916;-67
2023/04/11 03:48:05;;;;;;;;;;;9.70;95.70;;;;;;5107852;28;20403;-67
2023/04/11 03:50:30;;;;;;;;;;;9.70;95.70;;;;;;5108563;28;19916;-67
2023/04/11 03:52:56;;;;;;;;;;;9.70;95.60;;;;;;5107696;28;19916;-67
2023/04/11 03:55:22;;;;;;;;;;;9.70;95.70;;;;;;5108226;28;19912;-67
2023/04/11 03:57:47;;;;;;;;;;;9.70;95.80;;;;;;5107800;28;20379;-67
2023/04/11 04:00:13;;;;;;;;;;;9.70;95.80;;;;;;5108220;28;19912;-67
2023/04/11 04:02:39;;;;;;;;;;;9.70;95.80;;;;;;5107778;28;19947;-67
2023/04/11 04:05:05;;;;;;;;;;;9.70;95.70;;;;;;5108230;28;19958;-67
2023/04/11 04:07:31;;;;;;;;;;;9.70;95.80;;;;;;5106750;28;20005;-67
2023/04/11 04:09:57;;;;;;;;;;;9.70;95.80;;;;;;5107858;28;19935;-67
2023/04/11 04:12:22;;;;;;;;;;;9.70;95.70;;;;;;5104191;28;20427;-67
2023/04/11 04:14:48;;;;;;;;;;;9.60;95.60;;;;;;5110944;28;20007;-67
2023/04/11 04:17:14;;;;;;;;;;;9.60;95.70;;;;;;5111994;28;19973;-67
2023/04/11 04:19:40;;;;;;;;;;;9.60;95.70;;;;;;5111958;28;19927;-67
2023/04/11 04:22:10;;;;;;;;;;;9.60;95.60;;;;;;5111674;28;19911;-67
2023/04/11 04:24:38;;;;;;;;;;;9.70;95.60;;;;;;5111975;28;19998;-67
2023/04/11 04:27:08;;;;;;;;;;;9.60;95.60;;;;;;5110297;28;19954;-67
2023/04/11 04:29:37;;;;;;;;;;;9.60;95.60;;;;;;5110884;28;20623;-67
2023/04/11 04:32:09;;;;;;;;;;;9.60;95.70;;;;;;5097802;28;19919;-67
2023/04/11 04:34:37;;;;;;;;;;;9.60;95.80;;;;;;5091767;28;19916;-67
2023/04/11 04:37:02;;;;;;;;;;;9.60;95.70;;;;;;5099299;28;19955;-67
2023/04/11 04:39:29;;;;;;;;;;;9.60;95.70;;;;;;5111792;28;19954;-67
2023/04/11 04:41:57;;;;;;;;;;;9.60;95.70;;;;;;5111157;28;19999;-67
2023/04/11 04:44:23;;;;;;;;;;;9.60;95.70;;;;;;5111662;28;19977;-67
2023/04/11 04:46:55;;;;;;;;;;;9.60;95.80;;;;;;5111399;28;20450;-67
2023/04/11 04:49:21;;;;;;;;;;;9.60;96.00;;;;;;5111504;28;19907;-67
2023/04/11 04:51:47;;;;;;;;;;;9.50;95.70;;;;;;5110797;28;19911;-67
2023/04/11 04:54:13;;;;;;;;;;;9.50;95.70;;;;;;5111458;28;19912;-67
2023/04/11 04:56:38;;;;;;;;;;;9.50;95.70;;;;;;5110939;27;19915;-67
2023/04/11 04:59:04;;;;;;;;;;;9.50;95.70;;;;;;5111267;28;20015;-67
2023/04/11 05:01:31;;;;;;;;;;;9.60;95.80;;;;;;5107357;28;19965;-67
2023/04/11 05:04:00;;;;;;;;;;;9.50;95.70;;;;;;5108550;28;20023;-67
2023/04/11 05:06:28;;;;;;;;;;;9.50;95.80;;;;;;5111219;28;20549;-67
2023/04/11 05:08:55;;;;;;;;;;;9.50;95.80;;;;;;5110915;28;19915;-67
2023/04/11 05:11:22;;;;;;;;;;;9.50;95.80;;;;;;5111159;28;19928;-67
2023/04/11 05:13:47;;;;;;;;;;;9.50;95.70;;;;;;5110406;28;19963;-67
2023/04/11 05:16:13;;;;;;;;;;;9.50;95.70;;;;;;5110943;28;19912;-67
2023/04/11 05:18:38;;;;;;;;;;;9.50;95.70;;;;;;5110507;28;19916;-67
2023/04/11 05:21:04;;;;;;;;;;;9.50;95.80;;;;;;5110981;28;19915;-67
2023/04/11 05:23:29;;;;;;;;;;;9.50;95.80;;;;;;5110482;28;20005;-67
2023/04/11 05:25:57;;;;;;;;;;;9.50;95.80;;;;;;5108822;28;22068;-67
2023/04/11 05:28:22;;;;;;;;;;;9.40;95.70;;;;;;5110287;28;19943;-67
2023/04/11 05:30:47;;;;;;;;;;;9.40;95.70;;;;;;5110608;28;19908;-67
2023/04/11 05:33:14;;;;;;;;;;;9.50;95.70;;;;;;5110220;28;19915;-67
2023/04/11 05:35:40;;;;;;;;;;;9.40;95.70;;;;;;5110498;28;19912;-67
2023/04/11 05:38:05;;;;;;;;;;;9.50;95.70;;;;;;5108355;28;19912;-67
2023/04/11 05:40:31;;;;;;;;;;;9.40;95.70;;;;;;5110830;28;19912;-67
2023/04/11 05:42:56;;;;;;;;;;;9.40;95.70;;;;;;5110256;28;20750;-67
2023/04/11 05:45:22;;;;;;;;;;;9.50;95.70;;;;;;5109929;28;19911;-67
2023/04/11 05:47:47;;;;;;;;;;;9.50;95.60;;;;;;5109954;28;19911;-67
2023/04/11 05:50:13;;;;;;;;;;;9.40;95.60;;;;;;5110369;27;19912;-67
2023/04/11 05:52:38;;;;;;;;;;;9.40;95.70;;;;;;5109653;28;19916;-67
2023/04/11 05:55:04;;;;;;;;;;;9.40;95.70;;;;;;5104209;28;20623;-67
2023/04/11 05:57:30;;;;;;;;;;;9.50;95.70;;;;;;5108374;28;19912;-67
2023/04/11 05:59:55;;;;;;;;;;;9.50;95.70;;;;;;5107373;28;19934;-67
2023/04/11 06:02:21;;;;;;;;;;;9.40;95.60;;;;;;5105302;28;19912;-67
2023/04/11 06:04:46;;;;;;;;;;;9.50;95.60;;;;;;5109954;28;19912;-67
2023/04/11 06:07:12;;;;;;;;;;;9.50;95.40;;;;;;5108018;28;19918;-67
2023/04/11 06:09:40;;;;;;;;;;;9.50;95.20;;;;;;5110107;28;19935;-67
2023/04/11 06:12:06;;;;;;;;;;;9.50;95.10;;;;;;5108282;28;19939;-67
2023/04/11 06:14:32;;;;;;;;;;;9.50;95.10;;;;;;5109982;28;19970;-67
2023/04/11 06:16:57;;;;;;;;;;;9.50;95.10;;;;;;5109714;28;19964;-67
2023/04/11 06:19:23;;;;;;;;;;;9.50;95.20;;;;;;5109578;28;19919;-67
2023/04/11 06:21:48;;;;;;;;;;;9.50;95.20;;;;;;5108787;28;20417;-67
2023/04/11 06:24:14;;;;;;;;;;;9.50;95.30;;;;;;5109241;28;19911;-67
2023/04/11 06:26:40;;;;;;;;;;;9.50;95.30;;;;;;5109196;28;20010;-67
2023/04/11 06:29:06;;;;;;;;;;;9.50;95.20;;;;;;5109449;28;19996;-67
2023/04/11 06:31:32;;;;;;;;;;;9.60;95.10;;;;;;5108911;28;19947;-67
2023/04/11 06:33:58;;;;;;;;;;;9.70;95.10;;;;;;5109206;28;19920;-67
2023/04/11 06:36:23;;;;;;;;;;;9.70;95.10;;;;;;5106677;28;19919;-67
2023/04/11 06:38:49;;;;;;;;;;;9.80;95.00;;;;;;5108110;28;19916;-67
2023/04/11 06:41:14;;;;;;;;;;;9.80;94.90;;;;;;5109535;28;20356;-67
2023/04/11 06:43:40;;;;;;;;;;;9.80;94.90;;;;;;5109009;28;19923;-67
2023/04/11 06:46:07;;;;;;;;;;;9.80;94.70;;;;;;5109286;28;19911;-67
2023/04/11 06:48:32;;;;;;;;;;;9.80;94.70;;;;;;5109074;28;20027;-67
2023/04/11 06:50:58;;;;;;;;;;;9.90;94.70;;;;;;5109006;28;20436;-67
2023/04/11 06:53:23;;;;;;;;;;;9.90;94.70;;;;;;5108405;28;19915;-67
2023/04/11 06:55:49;;;;;;;;;;;9.90;94.60;;;;;;5108481;28;19955;-67
2023/04/11 06:58:14;;;;;;;;;;;9.90;94.60;;;;;;5108317;28;19918;-67
2023/04/11 07:00:40;;;;;;;;;;;10.00;94.50;;;;;;5108757;28;19908;-67
2023/04/11 07:03:07;;;;;;;;;;;10.00;94.40;;;;;;5108637;28;19911;-67
2023/04/11 07:05:34;;;;;;;;;;;10.00;94.40;;;;;;5109047;28;19977;-67
2023/04/11 07:07:59;;;;;;;;;;;10.00;94.30;;;;;;5108501;28;20360;-67
2023/04/11 07:10:25;;;;;;;;;;;10.10;94.30;;;;;;5108794;28;19919;-67
2023/04/11 07:12:50;;;;;;;;;;;10.00;94.30;;;;;;5106713;28;20425;-67
2023/04/11 07:15:16;;;;;;;;;;;10.10;94.10;;;;;;5108858;28;20014;-67
2023/04/11 07:17:42;;;;;;;;;;;10.20;94.10;;;;;;5108309;28;19920;-67
2023/04/11 07:20:08;;;;;;;;;;;10.10;94.00;;;;;;5108474;28;19922;-67
2023/04/11 07:22:35;;;;;;;;;;;10.10;94.00;;;;;;5108252;28;19972;-67
2023/04/11 07:25:04;;;;;;;;;;;10.20;94.00;;;;;;5108382;28;19915;-67
2023/04/11 07:27:31;;;;;;;;;;;10.20;93.90;;;;;;5108310;28;19912;-67
2023/04/11 07:29:57;;;;;;;;;;;10.20;93.90;;;;;;5108401;28;19912;-67
2023/04/11 07:32:22;;;;;;;;;;;10.30;93.80;;;;;;5107383;28;19919;-67
2023/04/11 07:34:48;;;;;;;;;;;10.30;93.80;;;;;;5108496;27;19912;-67
2023/04/11 07:37:15;;;;;;;;;;;10.30;93.80;;;;;;5108096;28;19919;-67
2023/04/11 07:39:40;;;;;;;;;;;10.30;93.60;;;;;;5106903;28;20388;-68
2023/04/11 07:42:06;;;;;;;;;;;10.40;93.60;;;;;;5106105;28;19921;-67
2023/04/11 07:44:32;;;;;;;;;;;10.50;93.50;;;;;;5108622;28;19911;-67
2023/04/11 07:46:58;;;;;;;;;;;10.50;93.50;;;;;;5107825;28;20595;-67
2023/04/11 07:49:23;;;;;;;;;;;10.50;93.50;;;;;;5107860;28;19915;-67
2023/04/11 07:51:49;;;;;;;;;;;10.50;93.50;;;;;;5105996;28;20449;-67
2023/04/11 07:54:14;;;;;;;;;;;10.60;93.40;;;;;;5108197;28;19922;-67
2023/04/11 07:56:40;;;;;;;;;;;10.60;93.40;;;;;;5107923;28;20288;-67
2023/04/11 07:59:05;;;;;;;;;;;10.60;93.40;;;;;;5107818;28;20249;-67
2023/04/11 08:01:31;;;;;;;;;;;10.60;93.30;;;;;;5103267;28;19915;-67
2023/04/11 08:03:57;;;;;;;;;;;10.70;93.30;;;;;;5106104;28;19912;-67
2023/04/11 08:06:22;;;;;;;;;;;10.80;93.20;;;;;;5106730;28;19954;-67
2023/04/11 08:08:48;;;;;;;;;;;10.80;93.10;;;;;;5107871;28;19908;-67
2023/04/11 08:11:14;;;;;;;;;;;10.80;93.10;;;;;;5106853;28;20560;-67
2023/04/11 08:13:40;;;;;;;;;;;10.90;93.00;;;;;;5107921;28;19923;-67
2023/04/11 08:16:07;;;;;;;;;;;10.90;92.90;;;;;;5108201;28;20359;-68
2023/04/11 08:18:34;;;;;;;;;;;11.00;92.90;;;;;;5107779;28;20571;-67
2023/04/11 08:21:00;;;;;;;;;;;11.00;92.70;;;;;;5106915;28;19923;-67
2023/04/11 08:23:25;;;;;;;;;;;11.00;92.60;;;;;;5105164;28;20432;-67
2023/04/11 08:25:51;;;;;;;;;;;11.00;92.60;;;;;;5106438;28;20010;-67
2023/04/11 08:28:17;;;;;;;;;;;11.10;92.70;;;;;;5106489;28;19911;-67
2023/04/11 08:30:42;;;;;;;;;;;11.10;92.50;;;;;;5107593;28;19935;-67
2023/04/11 08:33:08;;;;;;;;;;;11.10;92.50;;;;;;5107398;28;19912;-67
2023/04/11 08:35:34;;;;;;;;;;;11.20;92.50;;;;;;5107996;28;19982;-67
2023/04/11 08:37:59;;;;;;;;;;;11.10;92.60;;;;;;5107463;28;20435;-67
2023/04/11 08:40:26;;;;;;;;;;;11.10;92.50;;;;;;5107724;28;19908;-67
2023/04/11 08:42:56;;;;;;;;;;;11.20;92.50;;;;;;5107192;28;19911;-67
2023/04/11 08:45:22;;;;;;;;;;;11.30;92.50;;;;;;5107646;28;19992;-67
2023/04/11 08:47:48;;;;;;;;;;;11.30;92.30;;;;;;5107145;28;20123;-67
2023/04/11 08:50:14;;;;;;;;;;;11.40;92.30;;;;;;5107336;28;19926;-67
2023/04/11 08:52:40;;;;;;;;;;;11.40;92.20;;;;;;5106864;28;20580;-67
2023/04/11 08:55:05;;;;;;;;;;;11.30;92.20;;;;;;5106735;28;19915;-67
2023/04/11 08:57:31;;;;;;;;;;;11.30;92.30;;;;;;5105188;28;20363;-67
2023/04/11 09:00:09;;;;;;;;;;;11.40;92.10;;;;;;5108278;28;20390;-67
2023/04/11 09:02:52;;;;;;;;;;;11.40;92.10;;;;;;5109617;28;19911;-67
2023/04/11 09:05:25;;;;;;;;;;;11.50;92.00;;;;;;5111416;28;20314;-67
2023/04/11 09:07:50;;;;;;;;;;;11.50;91.70;;;;;;5103227;28;19912;-67
2023/04/11 09:10:17;;;;;;;;;;;11.50;91.90;;;;;;5101503;28;19959;-67
2023/04/11 09:12:43;;;;;;;;;;;11.60;91.80;;;;;;5093268;28;19950;-67
2023/04/11 09:15:22;;;;;;;;;;;11.60;91.70;;;;;;5107197;28;19963;-67
2023/04/11 09:17:48;;;;;;;;;;;11.70;91.60;;;;;;5100942;28;20482;-67
2023/04/11 09:20:15;;;;;;;;;;;11.70;91.60;;;;;;5088385;28;20426;-67
2023/04/11 09:22:41;;;;;;;;;;;11.70;91.40;;;;;;5089352;28;19908;-67
2023/04/11 09:25:06;;;;;;;;;;;11.70;91.60;;;;;;5090216;28;19935;-67
2023/04/11 09:27:32;;;;;;;;;;;11.60;91.50;;;;;;5109153;28;19919;-67
2023/04/11 09:29:58;;;;;;;;;;;11.60;91.40;;;;;;5110322;28;19912;-67
2023/04/11 09:32:27;;;;;;;;;;;11.70;91.20;;;;;;5109854;28;20404;-67
2023/04/11 09:35:08;;;;;;;;;;;11.70;91.20;;;;;;5110581;28;19912;-67
2023/04/11 09:37:46;;;;;;;;;;;11.70;91.10;;;;;;5105460;28;19972;-67
2023/04/11 09:40:15;;;;;;;;;;;11.80;91.10;;;;;;5110691;28;20364;-67
2023/04/11 09:42:41;;;;;;;;;;;11.80;91.10;;;;;;5110208;28;19916;-67
2023/04/11 09:45:27;;;;;;;;;;;11.80;90.90;;;;;;5110389;28;19912;-67
2023/04/11 09:47:54;;;;;;;;;;;11.70;90.90;;;;;;5108808;28;19918;-67
2023/04/11 09:50:20;;;;;;;;;;;11.70;90.80;;;;;;5101384;28;20036;-67
2023/04/11 09:52:46;;;;;;;;;;;11.70;90.70;;;;;;5108654;27;19923;-67
2023/04/11 09:55:12;;;;;;;;;;;11.80;90.70;;;;;;5109692;28;19908;-67
2023/04/11 09:57:39;;;;;;;;;;;11.80;90.50;;;;;;5109178;27;19933;-68
2023/04/11 10:00:51;;;;;;;;;;;11.90;90.40;;;;;;5109352;28;20007;-68
2023/04/11 10:02:52;;;;;;;;;;;11.90;90.20;;;;;;5100682;27;19911;-67
2023/04/11 10:05:24;;;;;;;;;;;11.90;90.40;;;;;;5109304;28;19912;-67
2023/04/11 10:08:09;;;;;;;;;;;11.80;90.50;;;;;;5109090;28;19991;-68
2023/04/11 10:10:34;;;;;;;;;;;11.90;90.50;;;;;;5108706;28;19938;-68
2023/04/11 10:13:00;;;;;;;;;;;11.90;90.00;;;;;;5108646;28;19920;-68
2023/04/11 10:15:26;;;;;;;;;;;12.00;90.00;;;;;;5108806;28;20376;-68
2023/04/11 10:18:18;;;;;;;;;;;12.10;90.10;;;;;;5107186;28;19911;-68
2023/04/11 10:20:45;;;;;;;;;;;12.10;90.00;;;;;;5105599;28;19926;-68
2023/04/11 10:23:11;;;;;;;;;;;12.10;88.80;;;;;;5108413;28;19912;-68
2023/04/11 10:25:54;;;;;;;;;;;12.20;88.00;;;;;;5108869;28;20352;-68
2023/04/11 10:28:29;;;;;;;;;;;12.20;88.50;;;;;;5107214;28;19915;-68
2023/04/11 10:30:58;;;;;;;;;;;12.30;88.00;;;;;;5102400;28;19968;-68
2023/04/11 10:33:26;;;;;;;;;;;12.40;89.30;;;;;;5123776;27;19942;-68
2023/04/11 10:36:01;;;;;;;;;;;12.40;88.00;;;;;;5129073;27;19911;-68
2023/04/11 10:38:42;;;;;;;;;;;12.50;87.40;;;;;;5108489;27;19912;-68
2023/04/11 10:41:16;;;;;;;;;;;12.60;88.40;;;;;;5106974;28;19911;-68
2023/04/11 10:43:42;;;;;;;;;;;12.70;88.80;;;;;;5107218;28;19924;-68
2023/04/11 10:46:24;;;;;;;;;;;12.70;87.90;;;;;;5105771;28;20581;-68
2023/04/11 10:48:56;;;;;;;;;;;12.80;87.80;;;;;;5105317;28;19918;-68
2023/04/11 10:51:24;;;;;;;;;;;12.90;87.40;;;;;;5102638;28;19908;-68
2023/04/11 10:53:51;;;;;;;;;;;13.00;88.00;;;;;;5107585;28;19926;-68
2023/04/11 10:56:52;;;;;;;;;;;13.10;87.50;;;;;;5108060;28;20342;-68
2023/04/11 10:59:29;;;;;;;;;;;13.00;88.20;;;;;;5064193;28;19963;-67
2023/04/11 11:01:55;;;;;;;;;;;13.00;89.00;;;;;;5101016;28;21314;-68
2023/04/11 11:04:29;;;;;;;;;;;13.10;88.10;;;;;;5106312;28;19943;-68
2023/04/11 11:06:55;;;;;;;;;;;13.20;88.70;;;;;;5107460;28;19933;-68
2023/04/11 11:09:22;;;;;;;;;;;13.30;88.30;;;;;;5107396;28;20326;-67
2023/04/11 11:12:04;;;;;;;;;;;13.30;88.10;;;;;;5106098;28;20370;-67
2023/04/11 11:14:29;;;;;;;;;;;13.50;87.80;;;;;;5105654;28;20370;-68
2023/04/11 11:16:55;;;;;;;;;;;13.50;86.80;;;;;;5105180;28;19911;-67
2023/04/11 11:19:20;;;;;;;;;;;13.60;87.40;;;;;;5106879;28;19926;-68
2023/04/11 11:21:46;;;;;;;;;;;13.70;87.40;;;;;;5105290;28;20018;-67
2023/04/11 11:24:11;;;;;;;;;;;13.80;87.30;;;;;;5106662;28;19950;-67
2023/04/11 11:26:41;;;;;;;;;;;13.90;86.10;;;;;;5107528;28;19947;-68
2023/04/11 11:29:07;;;;;;;;;;;14.00;86.10;;;;;;5107901;28;19908;-68
2023/04/11 11:31:38;;;;;;;;;;;14.10;86.10;;;;;;5107961;28;19912;-67
2023/04/11 11:34:04;;;;;;;;;;;14.10;86.00;;;;;;5106163;28;19946;-67
2023/04/11 11:36:32;;;;;;;;;;;14.20;86.10;;;;;;5106342;28;19920;-67
2023/04/11 11:38:57;;;;;;;;;;;14.30;85.30;;;;;;5106560;28;20435;-67
2023/04/11 11:41:23;;;;;;;;;;;14.30;85.10;;;;;;5107608;28;19919;-68
2023/04/11 11:43:48;;;;;;;;;;;14.40;86.00;;;;;;5107461;28;19911;-67
2023/04/11 11:46:14;;;;;;;;;;;14.40;85.50;;;;;;5107995;28;19923;-68
2023/04/11 11:48:55;;;;;;;;;;;14.40;86.30;;;;;;5107880;28;20500;-68
2023/04/11 11:51:21;;;;;;;;;;;14.40;86.90;;;;;;5108129;28;19914;-68
2023/04/11 11:54:07;;;;;;;;;;;14.50;87.00;;;;;;5107166;28;19916;-67
2023/04/11 11:56:33;;;;;;;;;;;14.60;86.80;;;;;;5105402;28;19919;-67
2023/04/11 11:58:59;;;;;;;;;;;14.70;85.70;;;;;;5106626;28;20320;-68
2023/04/11 12:01:24;;;;;;;;;;;14.80;86.10;;;;;;5106569;28;19912;-67
2023/04/11 12:03:52;;;;;;;;;;;14.90;86.40;;;;;;5106090;28;19950;-68
2023/04/11 12:06:18;;;;;;;;;;;14.90;85.60;;;;;;5105010;28;20010;-67
2023/04/11 12:08:48;;;;;;;;;;;15.00;86.10;;;;;;5106263;28;20288;-68
2023/04/11 12:11:15;;;;;;;;;;;15.00;86.20;;;;;;5106217;28;19927;-68
2023/04/11 12:13:41;;;;;;;;;;;15.00;84.50;;;;;;5105986;28;19916;-67
2023/04/11 12:16:06;;;;;;;;;;;15.00;85.40;;;;;;5106697;28;20542;-68
2023/04/11 12:18:32;;;;;;;;;;;15.10;85.40;;;;;;5106480;28;20520;-67
2023/04/11 12:20:57;;;;;;;;;;;15.10;86.10;;;;;;5106695;28;19994;-68
2023/04/11 12:23:23;;;;;;;;;;;15.10;85.00;;;;;;5105966;28;20683;-68
2023/04/11 12:25:49;;;;;;;;;;;15.10;85.80;;;;;;5106630;28;19912;-68
2023/04/11 12:28:14;;;;;;;;;;;15.20;85.20;;;;;;5106616;28;19919;-68
2023/04/11 12:30:40;;;;;;;;;;;15.20;85.20;;;;;;5106810;28;20391;-68
2023/04/11 12:33:06;;;;;;;;;;;15.20;86.20;;;;;;5105638;28;19912;-68
2023/04/11 12:35:31;;;;;;;;;;;15.20;84.80;;;;;;5109826;28;19912;-68
2023/04/11 12:37:57;;;;;;;;;;;15.30;82.50;;;;;;5109901;28;19912;-68
2023/04/11 12:40:23;;;;;;;;;;;15.30;84.50;;;;;;5110168;28;19911;-68
2023/04/11 12:42:48;;;;;;;;;;;15.40;85.20;;;;;;5110016;28;19912;-68
2023/04/11 12:45:15;;;;;;;;;;;15.40;84.40;;;;;;5108724;28;20028;-68
2023/04/11 12:47:40;;;;;;;;;;;15.40;83.30;;;;;;5109931;28;19961;-68
2023/04/11 12:50:06;;;;;;;;;;;15.40;85.00;;;;;;5110265;28;19912;-68
2023/04/11 12:52:33;;;;;;;;;;;15.40;84.40;;;;;;5109550;28;20068;-68
2023/04/11 12:54:58;;;;;;;;;;;15.40;84.50;;;;;;5107315;28;20603;-67
2023/04/11 12:57:24;;;;;;;;;;;15.40;83.40;;;;;;5110520;28;19919;-67
2023/04/11 12:59:50;;;;;;;;;;;15.40;85.30;;;;;;5110592;28;19955;-68
2023/04/11 13:02:15;;;;;;;;;;;15.40;83.10;;;;;;5109984;27;20292;-68
2023/04/11 13:04:41;;;;;;;;;;;15.30;83.50;;;;;;5110980;28;19908;-68
2023/04/11 13:07:08;;;;;;;;;;;15.30;84.20;;;;;;5102090;28;19966;-68
2023/04/11 13:09:34;;;;;;;;;;;15.30;84.50;;;;;;5090545;28;19919;-68
2023/04/11 13:12:02;;;;;;;;;;;15.30;85.10;;;;;;5102565;28;19915;-68
2023/04/11 13:14:28;;;;;;;;;;;15.40;83.70;;;;;;5109581;28;19915;-68
2023/04/11 13:16:54;;;;;;;;;;;15.40;84.60;;;;;;5110366;28;20467;-68
2023/04/11 13:19:20;;;;;;;;;;;15.50;84.80;;;;;;5109302;28;20654;-68
2023/04/11 13:21:45;;;;;;;;;;;15.40;84.50;;;;;;5110683;28;20014;-68
2023/04/11 13:24:11;;;;;;;;;;;15.50;84.30;;;;;;5110685;28;20369;-68
2023/04/11 13:26:38;;;;;;;;;;;15.50;82.00;;;;;;5110685;27;19919;-68
2023/04/11 13:29:04;;;;;;;;;;;15.40;82.20;;;;;;5110725;28;19915;-68
2023/04/11 13:31:29;;;;;;;;;;;15.40;82.30;;;;;;5110136;28;19912;-68
2023/04/11 13:33:58;;;;;;;;;;;15.40;82.70;;;;;;5109706;28;20503;-68
2023/04/11 13:36:26;;;;;;;;;;;15.30;83.50;;;;;;5110331;28;20010;-68
2023/04/11 13:38:55;;;;;;;;;;;15.30;82.00;;;;;;5110196;28;19911;-68
2023/04/11 13:41:21;;;;;;;;;;;15.30;82.90;;;;;;5108396;28;19923;-68
2023/04/11 13:43:48;;;;;;;;;;;15.40;84.60;;;;;;5091849;28;19927;-68
2023/04/11 13:46:15;;;;;;;;;;;15.50;84.90;;;;;;5100925;28;19947;-68
2023/04/11 13:48:41;;;;;;;;;;;15.50;83.70;;;;;;5109774;28;20427;-68
2023/04/11 13:51:07;;;;;;;;;;;15.50;81.00;;;;;;5110409;28;19912;-67
2023/04/11 13:53:32;;;;;;;;;;;15.40;81.70;;;;;;5108242;28;19923;-68
2023/04/11 13:55:58;;;;;;;;;;;15.40;82.70;;;;;;5110167;28;19919;-68
2023/04/11 13:58:23;;;;;;;;;;;15.40;84.20;;;;;;5109917;28;19919;-67
2023/04/11 14:00:49;;;;;;;;;;;15.40;84.30;;;;;;5110024;28;20288;-68
2023/04/11 14:03:15;;;;;;;;;;;15.40;83.50;;;;;;5109536;28;19998;-68
2023/04/11 14:05:40;;;;;;;;;;;15.40;83.40;;;;;;5108545;28;19916;-68
2023/04/11 14:08:06;;;;;;;;;;;15.40;83.40;;;;;;5109849;28;20353;-68
2023/04/11 14:10:31;;;;;;;;;;;15.30;83.90;;;;;;5110112;28;19908;-68
2023/04/11 14:12:57;;;;;;;;;;;15.30;84.00;;;;;;5109366;28;20272;-68
2023/04/11 14:15:22;;;;;;;;;;;15.30;82.80;;;;;;5109684;28;19918;-68
2023/04/11 14:17:48;;;;;;;;;;;15.20;83.70;;;;;;5109596;28;19915;-68
2023/04/11 14:20:14;;;;;;;;;;;15.20;85.30;;;;;;5109915;28;20369;-68